sensor_id;sensor_type;location;lat;lon;timestamp;P1;durP1;ratioP1;P2;durP2;ratioP2
48205;SDS011;33995;48.202;16.260;2022-08-02T00:01:21;2.70;;;2.50;;
48205;SDS011;33995;48.202;16.260;2022-08-02T00:03:48;2.80;;;2.53;;
48205;SDS011;33995;48.202;16.260;2022-08-02T00:06:17;2.63;;;2.43;;
48205;SDS011;33995;48.202;16.260;2022-08-02T00:08:45;2.77;;;2.53;;
48205;SDS011;33995;48.202;16.260;2022-08-02T00:11:15;2.60;;;2.40;;
48205;SDS011;33995;48.202;16.260;2022-08-02T00:13:43;2.47;;;2.23;;
48205;SDS011;33995;48.202;16.260;2022-08-02T00:16:12;2.83;;;2.53;;
48205;SDS011;33995;48.202;16.260;2022-08-02T00:18:43;2.50;;;2.30;;
48205;SDS011;33995;48.202;16.260;2022-08-02T00:21:11;2.73;;;2.50;;
48205;SDS011;33995;48.202;16.260;2022-08-02T00:23:40;2.50;;;2.30;;
48205;SDS011;33995;48.202;16.260;2022-08-02T00:26:29;2.60;;;2.40;;
48205;SDS011;33995;48.202;16.260;2022-08-02T00:28:57;2.57;;;2.37;;
48205;SDS011;33995;48.202;16.260;2022-08-02T00:31:27;2.63;;;2.40;;
48205;SDS011;33995;48.202;16.260;2022-08-02T00:33:59;3.13;;;2.40;;
48205;SDS011;33995;48.202;16.260;2022-08-02T00:36:50;2.60;;;2.40;;
48205;SDS011;33995;48.202;16.260;2022-08-02T00:39:17;2.67;;;2.47;;
48205;SDS011;33995;48.202;16.260;2022-08-02T00:42:01;2.60;;;2.40;;
48205;SDS011;33995;48.202;16.260;2022-08-02T00:44:31;3.10;;;2.27;;
48205;SDS011;33995;48.202;16.260;2022-08-02T00:46:59;2.70;;;2.50;;
48205;SDS011;33995;48.202;16.260;2022-08-02T00:49:31;2.70;;;2.50;;
48205;SDS011;33995;48.202;16.260;2022-08-02T00:52:00;2.53;;;2.23;;
48205;SDS011;33995;48.202;16.260;2022-08-02T00:54:28;2.60;;;2.40;;
48205;SDS011;33995;48.202;16.260;2022-08-02T00:56:57;2.97;;;2.20;;
48205;SDS011;33995;48.202;16.260;2022-08-02T00:59:25;2.40;;;2.20;;
48205;SDS011;33995;48.202;16.260;2022-08-02T01:01:56;3.17;;;2.07;;
48205;SDS011;33995;48.202;16.260;2022-08-02T01:04:27;2.57;;;2.20;;
48205;SDS011;33995;48.202;16.260;2022-08-02T01:07:01;2.20;;;1.90;;
48205;SDS011;33995;48.202;16.260;2022-08-02T01:09:44;2.60;;;2.40;;
48205;SDS011;33995;48.202;16.260;2022-08-02T01:12:12;2.37;;;2.17;;
48205;SDS011;33995;48.202;16.260;2022-08-02T01:14:42;2.40;;;2.20;;
48205;SDS011;33995;48.202;16.260;2022-08-02T01:23:01;2.30;;;2.10;;
48205;SDS011;33995;48.202;16.260;2022-08-02T01:29:07;2.30;;;2.10;;
48205;SDS011;33995;48.202;16.260;2022-08-02T01:32:15;1.87;;;1.77;;
48205;SDS011;33995;48.202;16.260;2022-08-02T01:34:46;2.20;;;2.10;;
48205;SDS011;33995;48.202;16.260;2022-08-02T01:37:24;2.73;;;2.20;;
48205;SDS011;33995;48.202;16.260;2022-08-02T01:40:18;2.23;;;1.90;;
48205;SDS011;33995;48.202;16.260;2022-08-02T01:42:51;2.20;;;1.93;;
48205;SDS011;33995;48.202;16.260;2022-08-02T01:45:32;2.20;;;2.00;;
48205;SDS011;33995;48.202;16.260;2022-08-02T01:48:01;2.37;;;2.00;;
48205;SDS011;33995;48.202;16.260;2022-08-02T01:50:32;2.00;;;1.80;;
48205;SDS011;33995;48.202;16.260;2022-08-02T01:53:04;2.27;;;1.97;;
48205;SDS011;33995;48.202;16.260;2022-08-02T01:55:38;2.30;;;2.10;;
48205;SDS011;33995;48.202;16.260;2022-08-02T01:58:28;3.10;;;2.10;;
48205;SDS011;33995;48.202;16.260;2022-08-02T02:01:00;2.30;;;2.10;;
48205;SDS011;33995;48.202;16.260;2022-08-02T02:03:30;2.80;;;1.80;;
48205;SDS011;33995;48.202;16.260;2022-08-02T02:06:00;1.80;;;1.70;;
48205;SDS011;33995;48.202;16.260;2022-08-02T02:08:32;3.07;;;1.80;;
48205;SDS011;33995;48.202;16.260;2022-08-02T02:11:03;2.20;;;2.00;;
48205;SDS011;33995;48.202;16.260;2022-08-02T02:13:54;1.73;;;1.63;;
48205;SDS011;33995;48.202;16.260;2022-08-02T02:16:29;2.20;;;2.00;;
48205;SDS011;33995;48.202;16.260;2022-08-02T02:19:01;3.20;;;2.13;;
48205;SDS011;33995;48.202;16.260;2022-08-02T02:21:33;2.20;;;2.00;;
48205;SDS011;33995;48.202;16.260;2022-08-02T02:24:07;2.30;;;2.10;;
48205;SDS011;33995;48.202;16.260;2022-08-02T02:26:39;2.40;;;2.20;;
48205;SDS011;33995;48.202;16.260;2022-08-02T02:29:22;2.03;;;1.93;;
48205;SDS011;33995;48.202;16.260;2022-08-02T02:31:54;2.13;;;1.87;;
48205;SDS011;33995;48.202;16.260;2022-08-02T02:34:29;2.00;;;1.90;;
48205;SDS011;33995;48.202;16.260;2022-08-02T02:37:07;2.13;;;1.90;;
48205;SDS011;33995;48.202;16.260;2022-08-02T02:39:41;2.03;;;1.93;;
48205;SDS011;33995;48.202;16.260;2022-08-02T02:42:14;2.43;;;2.00;;
48205;SDS011;33995;48.202;16.260;2022-08-02T02:44:45;2.70;;;2.00;;
48205;SDS011;33995;48.202;16.260;2022-08-02T02:47:14;1.80;;;1.70;;
48205;SDS011;33995;48.202;16.260;2022-08-02T02:49:44;1.80;;;1.70;;
48205;SDS011;33995;48.202;16.260;2022-08-02T02:52:16;1.90;;;1.80;;
48205;SDS011;33995;48.202;16.260;2022-08-02T02:54:46;2.03;;;1.83;;
48205;SDS011;33995;48.202;16.260;2022-08-02T02:57:17;2.47;;;1.90;;
48205;SDS011;33995;48.202;16.260;2022-08-02T02:59:45;1.80;;;1.70;;
48205;SDS011;33995;48.202;16.260;2022-08-02T03:02:17;2.60;;;2.00;;
48205;SDS011;33995;48.202;16.260;2022-08-02T03:04:46;2.20;;;1.93;;
48205;SDS011;33995;48.202;16.260;2022-08-02T03:07:24;1.87;;;1.63;;
48205;SDS011;33995;48.202;16.260;2022-08-02T03:09:53;2.20;;;1.90;;
48205;SDS011;33995;48.202;16.260;2022-08-02T03:12:30;1.90;;;1.80;;
48205;SDS011;33995;48.202;16.260;2022-08-02T03:15:00;1.97;;;1.87;;
48205;SDS011;33995;48.202;16.260;2022-08-02T03:17:38;2.13;;;1.93;;
48205;SDS011;33995;48.202;16.260;2022-08-02T03:20:19;2.00;;;1.90;;
48205;SDS011;33995;48.202;16.260;2022-08-02T03:22:48;2.47;;;2.00;;
48205;SDS011;33995;48.202;16.260;2022-08-02T03:25:17;1.90;;;1.73;;
48205;SDS011;33995;48.202;16.260;2022-08-02T03:28:00;2.00;;;1.90;;
48205;SDS011;33995;48.202;16.260;2022-08-02T03:30:31;2.50;;;1.90;;
48205;SDS011;33995;48.202;16.260;2022-08-02T03:32:59;1.97;;;1.83;;
48205;SDS011;33995;48.202;16.260;2022-08-02T03:35:30;1.80;;;1.70;;
48205;SDS011;33995;48.202;16.260;2022-08-02T03:37:58;1.83;;;1.70;;
48205;SDS011;33995;48.202;16.260;2022-08-02T03:40:32;2.10;;;1.90;;
48205;SDS011;33995;48.202;16.260;2022-08-02T03:43:01;2.33;;;2.00;;
48205;SDS011;33995;48.202;16.260;2022-08-02T03:45:31;2.37;;;2.17;;
48205;SDS011;33995;48.202;16.260;2022-08-02T03:47:59;2.10;;;2.00;;
48205;SDS011;33995;48.202;16.260;2022-08-02T03:50:57;2.33;;;2.13;;
48205;SDS011;33995;48.202;16.260;2022-08-02T03:53:28;3.17;;;2.00;;
48205;SDS011;33995;48.202;16.260;2022-08-02T03:56:00;3.43;;;1.93;;
48205;SDS011;33995;48.202;16.260;2022-08-02T03:58:31;2.57;;;1.90;;
48205;SDS011;33995;48.202;16.260;2022-08-02T04:00:58;2.70;;;2.10;;
48205;SDS011;33995;48.202;16.260;2022-08-02T04:03:28;2.60;;;1.90;;
48205;SDS011;33995;48.202;16.260;2022-08-02T04:05:56;1.93;;;1.83;;
48205;SDS011;33995;48.202;16.260;2022-08-02T04:08:31;1.97;;;1.77;;
48205;SDS011;33995;48.202;16.260;2022-08-02T04:11:05;4.13;;;2.17;;
48205;SDS011;33995;48.202;16.260;2022-08-02T04:14:10;2.60;;;1.80;;
48205;SDS011;33995;48.202;16.260;2022-08-02T04:16:40;1.80;;;1.70;;
48205;SDS011;33995;48.202;16.260;2022-08-02T04:19:14;1.77;;;1.67;;
48205;SDS011;33995;48.202;16.260;2022-08-02T04:22:10;1.80;;;1.70;;
48205;SDS011;33995;48.202;16.260;2022-08-02T04:24:47;2.37;;;1.70;;
48205;SDS011;33995;48.202;16.260;2022-08-02T04:27:19;1.93;;;1.73;;
48205;SDS011;33995;48.202;16.260;2022-08-02T04:30:12;1.73;;;1.60;;
48205;SDS011;33995;48.202;16.260;2022-08-02T04:32:43;2.33;;;1.80;;
48205;SDS011;33995;48.202;16.260;2022-08-02T04:35:20;1.77;;;1.67;;
48205;SDS011;33995;48.202;16.260;2022-08-02T04:37:48;2.33;;;1.60;;
48205;SDS011;33995;48.202;16.260;2022-08-02T04:40:38;2.07;;;1.60;;
48205;SDS011;33995;48.202;16.260;2022-08-02T04:43:09;1.90;;;1.70;;
48205;SDS011;33995;48.202;16.260;2022-08-02T04:45:39;3.25;;;2.10;;
48205;SDS011;33995;48.202;16.260;2022-08-02T04:48:16;1.80;;;1.70;;
48205;SDS011;33995;48.202;16.260;2022-08-02T04:50:47;1.97;;;1.57;;
48205;SDS011;33995;48.202;16.260;2022-08-02T04:53:14;1.90;;;1.80;;
48205;SDS011;33995;48.202;16.260;2022-08-02T04:55:43;1.90;;;1.70;;
48205;SDS011;33995;48.202;16.260;2022-08-02T04:58:13;2.00;;;1.90;;
48205;SDS011;33995;48.202;16.260;2022-08-02T05:01:04;1.97;;;1.80;;
48205;SDS011;33995;48.202;16.260;2022-08-02T05:03:36;2.27;;;2.00;;
48205;SDS011;33995;48.202;16.260;2022-08-02T05:06:06;2.90;;;1.90;;
48205;SDS011;33995;48.202;16.260;2022-08-02T05:08:46;1.87;;;1.73;;
48205;SDS011;33995;48.202;16.260;2022-08-02T05:11:20;2.07;;;1.90;;
48205;SDS011;33995;48.202;16.260;2022-08-02T05:14:02;2.13;;;1.93;;
48205;SDS011;33995;48.202;16.260;2022-08-02T05:16:34;2.07;;;1.90;;
48205;SDS011;33995;48.202;16.260;2022-08-02T05:19:03;2.20;;;2.00;;
48205;SDS011;33995;48.202;16.260;2022-08-02T05:21:33;1.90;;;1.80;;
48205;SDS011;33995;48.202;16.260;2022-08-02T05:24:02;2.50;;;1.90;;
48205;SDS011;33995;48.202;16.260;2022-08-02T05:26:43;2.37;;;2.17;;
48205;SDS011;33995;48.202;16.260;2022-08-02T05:29:11;4.73;;;1.93;;
48205;SDS011;33995;48.202;16.260;2022-08-02T05:31:41;2.87;;;2.20;;
48205;SDS011;33995;48.202;16.260;2022-08-02T05:34:12;2.60;;;2.03;;
48205;SDS011;33995;48.202;16.260;2022-08-02T05:36:41;3.40;;;2.00;;
48205;SDS011;33995;48.202;16.260;2022-08-02T05:39:12;2.20;;;2.10;;
48205;SDS011;33995;48.202;16.260;2022-08-02T05:41:45;2.40;;;2.07;;
48205;SDS011;33995;48.202;16.260;2022-08-02T05:44:23;3.20;;;2.30;;
48205;SDS011;33995;48.202;16.260;2022-08-02T05:46:50;2.63;;;2.40;;
48205;SDS011;33995;48.202;16.260;2022-08-02T05:49:19;2.23;;;2.13;;
48205;SDS011;33995;48.202;16.260;2022-08-02T05:52:31;2.30;;;2.20;;
48205;SDS011;33995;48.202;16.260;2022-08-02T05:54:55;2.57;;;2.37;;
48205;SDS011;33995;48.202;16.260;2022-08-02T06:00:45;2.63;;;2.40;;
48205;SDS011;33995;48.202;16.260;2022-08-02T06:05:58;2.60;;;2.30;;
48205;SDS011;33995;48.202;16.260;2022-08-02T06:08:47;2.67;;;2.37;;
48205;SDS011;33995;48.202;16.260;2022-08-02T06:11:22;3.63;;;2.50;;
48205;SDS011;33995;48.202;16.260;2022-08-02T06:14:01;2.57;;;2.37;;
48205;SDS011;33995;48.202;16.260;2022-08-02T06:16:33;2.60;;;2.40;;
48205;SDS011;33995;48.202;16.260;2022-08-02T06:19:08;2.43;;;2.23;;
48205;SDS011;33995;48.202;16.260;2022-08-02T06:21:40;2.60;;;2.40;;
48205;SDS011;33995;48.202;16.260;2022-08-02T06:24:30;2.60;;;2.40;;
48205;SDS011;33995;48.202;16.260;2022-08-02T06:26:59;2.57;;;2.37;;
48205;SDS011;33995;48.202;16.260;2022-08-02T06:29:30;2.80;;;2.40;;
48205;SDS011;33995;48.202;16.260;2022-08-02T06:32:05;2.43;;;2.30;;
48205;SDS011;33995;48.202;16.260;2022-08-02T06:34:38;2.60;;;2.40;;
48205;SDS011;33995;48.202;16.260;2022-08-02T06:37:35;2.73;;;2.47;;
48205;SDS011;33995;48.202;16.260;2022-08-02T06:40:20;2.70;;;2.50;;
48205;SDS011;33995;48.202;16.260;2022-08-02T06:45:40;2.60;;;2.40;;
48205;SDS011;33995;48.202;16.260;2022-08-02T06:48:07;2.70;;;2.50;;
48205;SDS011;33995;48.202;16.260;2022-08-02T06:50:40;2.80;;;2.60;;
48205;SDS011;33995;48.202;16.260;2022-08-02T06:53:10;2.77;;;2.57;;
48205;SDS011;33995;48.202;16.260;2022-08-02T06:55:39;3.03;;;2.53;;
48205;SDS011;33995;48.202;16.260;2022-08-02T06:58:11;3.97;;;2.60;;
48205;SDS011;33995;48.202;16.260;2022-08-02T07:00:41;3.83;;;2.30;;
48205;SDS011;33995;48.202;16.260;2022-08-02T07:03:09;2.73;;;2.53;;
48205;SDS011;33995;48.202;16.260;2022-08-02T07:05:37;2.83;;;2.30;;
48205;SDS011;33995;48.202;16.260;2022-08-02T07:08:07;2.77;;;2.57;;
48205;SDS011;33995;48.202;16.260;2022-08-02T07:10:35;2.70;;;2.50;;
48205;SDS011;33995;48.202;16.260;2022-08-02T07:13:05;2.90;;;2.70;;
48205;SDS011;33995;48.202;16.260;2022-08-02T07:15:36;2.60;;;2.40;;
48205;SDS011;33995;48.202;16.260;2022-08-02T07:18:15;2.57;;;2.37;;
48205;SDS011;33995;48.202;16.260;2022-08-02T07:20:45;2.57;;;2.37;;
48205;SDS011;33995;48.202;16.260;2022-08-02T07:23:28;2.77;;;2.57;;
48205;SDS011;33995;48.202;16.260;2022-08-02T07:25:56;2.97;;;2.40;;
48205;SDS011;33995;48.202;16.260;2022-08-02T07:28:32;3.20;;;2.30;;
48205;SDS011;33995;48.202;16.260;2022-08-02T07:31:02;3.27;;;2.90;;
48205;SDS011;33995;48.202;16.260;2022-08-02T07:33:31;2.77;;;2.57;;
48205;SDS011;33995;48.202;16.260;2022-08-02T07:36:07;4.23;;;3.03;;
48205;SDS011;33995;48.202;16.260;2022-08-02T07:38:48;2.73;;;2.53;;
48205;SDS011;33995;48.202;16.260;2022-08-02T07:41:19;2.90;;;2.70;;
48205;SDS011;33995;48.202;16.260;2022-08-02T07:43:48;2.83;;;2.63;;
48205;SDS011;33995;48.202;16.260;2022-08-02T07:46:15;2.90;;;2.67;;
48205;SDS011;33995;48.202;16.260;2022-08-02T07:48:45;3.03;;;2.83;;
48205;SDS011;33995;48.202;16.260;2022-08-02T07:51:14;3.23;;;2.67;;
48205;SDS011;33995;48.202;16.260;2022-08-02T07:53:44;2.93;;;2.70;;
48205;SDS011;33995;48.202;16.260;2022-08-02T07:56:29;2.80;;;2.60;;
48205;SDS011;33995;48.202;16.260;2022-08-02T07:58:57;3.17;;;2.87;;
48205;SDS011;33995;48.202;16.260;2022-08-02T08:01:26;2.97;;;2.70;;
48205;SDS011;33995;48.202;16.260;2022-08-02T08:03:58;3.17;;;2.90;;
48205;SDS011;33995;48.202;16.260;2022-08-02T08:06:28;2.80;;;2.60;;
48205;SDS011;33995;48.202;16.260;2022-08-02T08:08:57;4.17;;;2.70;;
48205;SDS011;33995;48.202;16.260;2022-08-02T08:11:27;3.40;;;2.90;;
48205;SDS011;33995;48.202;16.260;2022-08-02T08:13:59;3.13;;;2.87;;
48205;SDS011;33995;48.202;16.260;2022-08-02T08:16:32;3.40;;;2.80;;
48205;SDS011;33995;48.202;16.260;2022-08-02T08:19:01;3.00;;;2.80;;
48205;SDS011;33995;48.202;16.260;2022-08-02T08:21:33;3.00;;;2.70;;
48205;SDS011;33995;48.202;16.260;2022-08-02T08:24:01;2.77;;;2.47;;
48205;SDS011;33995;48.202;16.260;2022-08-02T08:26:39;3.53;;;2.80;;
48205;SDS011;33995;48.202;16.260;2022-08-02T08:29:07;3.10;;;2.90;;
48205;SDS011;33995;48.202;16.260;2022-08-02T08:31:37;2.93;;;2.73;;
48205;SDS011;33995;48.202;16.260;2022-08-02T08:34:07;3.00;;;2.80;;
48205;SDS011;33995;48.202;16.260;2022-08-02T08:36:35;3.07;;;2.73;;
48205;SDS011;33995;48.202;16.260;2022-08-02T08:39:03;3.03;;;2.83;;
48205;SDS011;33995;48.202;16.260;2022-08-02T08:41:32;3.40;;;2.90;;
48205;SDS011;33995;48.202;16.260;2022-08-02T08:44:02;2.80;;;2.60;;
48205;SDS011;33995;48.202;16.260;2022-08-02T08:46:35;3.00;;;2.80;;
48205;SDS011;33995;48.202;16.260;2022-08-02T08:49:11;3.17;;;2.90;;
48205;SDS011;33995;48.202;16.260;2022-08-02T08:51:54;4.43;;;3.67;;
48205;SDS011;33995;48.202;16.260;2022-08-02T08:54:27;4.17;;;3.80;;
48205;SDS011;33995;48.202;16.260;2022-08-02T08:56:57;3.43;;;3.07;;
48205;SDS011;33995;48.202;16.260;2022-08-02T08:59:25;3.20;;;3.00;;
48205;SDS011;33995;48.202;16.260;2022-08-02T09:01:56;3.10;;;2.80;;
48205;SDS011;33995;48.202;16.260;2022-08-02T09:04:47;3.10;;;2.90;;
48205;SDS011;33995;48.202;16.260;2022-08-02T09:07:22;2.93;;;2.70;;
48205;SDS011;33995;48.202;16.260;2022-08-02T09:09:49;3.33;;;2.63;;
48205;SDS011;33995;48.202;16.260;2022-08-02T09:12:19;2.80;;;2.60;;
48205;SDS011;33995;48.202;16.260;2022-08-02T09:14:51;3.20;;;2.73;;
48205;SDS011;33995;48.202;16.260;2022-08-02T09:17:20;3.13;;;2.70;;
48205;SDS011;33995;48.202;16.260;2022-08-02T09:19:51;2.90;;;2.70;;
48205;SDS011;33995;48.202;16.260;2022-08-02T09:22:35;2.90;;;2.40;;
48205;SDS011;33995;48.202;16.260;2022-08-02T09:25:05;2.20;;;2.10;;
48205;SDS011;33995;48.202;16.260;2022-08-02T09:27:43;2.60;;;2.40;;
48205;SDS011;33995;48.202;16.260;2022-08-02T09:30:17;3.10;;;2.80;;
48205;SDS011;33995;48.202;16.260;2022-08-02T09:32:45;2.50;;;2.30;;
48205;SDS011;33995;48.202;16.260;2022-08-02T09:35:34;2.60;;;2.40;;
48205;SDS011;33995;48.202;16.260;2022-08-02T09:38:28;3.10;;;2.60;;
48205;SDS011;33995;48.202;16.260;2022-08-02T09:40:58;2.93;;;2.40;;
48205;SDS011;33995;48.202;16.260;2022-08-02T09:43:42;2.70;;;2.50;;
48205;SDS011;33995;48.202;16.260;2022-08-02T09:46:30;2.20;;;2.10;;
48205;SDS011;33995;48.202;16.260;2022-08-02T09:49:12;3.13;;;2.27;;
48205;SDS011;33995;48.202;16.260;2022-08-02T09:54:22;2.40;;;2.20;;
48205;SDS011;33995;48.202;16.260;2022-08-02T09:56:51;2.87;;;2.00;;
48205;SDS011;33995;48.202;16.260;2022-08-02T09:59:22;2.10;;;2.00;;
48205;SDS011;33995;48.202;16.260;2022-08-02T10:01:51;2.20;;;2.10;;
48205;SDS011;33995;48.202;16.260;2022-08-02T10:04:29;2.93;;;2.10;;
48205;SDS011;33995;48.202;16.260;2022-08-02T10:07:19;3.20;;;2.30;;
48205;SDS011;33995;48.202;16.260;2022-08-02T10:09:49;3.20;;;2.10;;
48205;SDS011;33995;48.202;16.260;2022-08-02T10:12:18;2.10;;;1.90;;
48205;SDS011;33995;48.202;16.260;2022-08-02T10:14:50;2.07;;;1.97;;
48205;SDS011;33995;48.202;16.260;2022-08-02T10:17:19;2.10;;;2.00;;
48205;SDS011;33995;48.202;16.260;2022-08-02T10:19:48;2.10;;;1.80;;
48205;SDS011;33995;48.202;16.260;2022-08-02T10:22:32;2.30;;;2.10;;
48205;SDS011;33995;48.202;16.260;2022-08-02T10:25:00;2.00;;;1.90;;
48205;SDS011;33995;48.202;16.260;2022-08-02T10:27:30;2.00;;;1.90;;
48205;SDS011;33995;48.202;16.260;2022-08-02T10:30:21;2.00;;;1.90;;
48205;SDS011;33995;48.202;16.260;2022-08-02T10:32:50;2.07;;;1.97;;
48205;SDS011;33995;48.202;16.260;2022-08-02T10:35:21;1.80;;;1.70;;
48205;SDS011;33995;48.202;16.260;2022-08-02T10:37:59;1.80;;;1.70;;
48205;SDS011;33995;48.202;16.260;2022-08-02T10:40:50;1.97;;;1.60;;
48205;SDS011;33995;48.202;16.260;2022-08-02T10:43:40;2.10;;;1.90;;
48205;SDS011;33995;48.202;16.260;2022-08-02T10:52:06;1.90;;;1.80;;
48205;SDS011;33995;48.202;16.260;2022-08-02T10:54:40;1.90;;;1.80;;
48205;SDS011;33995;48.202;16.260;2022-08-02T10:57:17;1.83;;;1.73;;
48205;SDS011;33995;48.202;16.260;2022-08-02T11:02:51;2.40;;;1.90;;
48205;SDS011;33995;48.202;16.260;2022-08-02T11:05:32;1.80;;;1.70;;
48205;SDS011;33995;48.202;16.260;2022-08-02T11:08:20;1.70;;;1.60;;
48205;SDS011;33995;48.202;16.260;2022-08-02T11:10:48;1.63;;;1.53;;
48205;SDS011;33995;48.202;16.260;2022-08-02T11:13:18;1.60;;;1.50;;
48205;SDS011;33995;48.202;16.260;2022-08-02T11:21:32;1.90;;;1.80;;
48205;SDS011;33995;48.202;16.260;2022-08-02T11:27:00;1.77;;;1.67;;
48205;SDS011;33995;48.202;16.260;2022-08-02T11:29:41;1.90;;;1.70;;
48205;SDS011;33995;48.202;16.260;2022-08-02T11:32:21;1.83;;;1.50;;
48205;SDS011;33995;48.202;16.260;2022-08-02T11:34:58;1.60;;;1.50;;
48205;SDS011;33995;48.202;16.260;2022-08-02T11:37:33;1.60;;;1.50;;
48205;SDS011;33995;48.202;16.260;2022-08-02T11:40:06;1.60;;;1.50;;
48205;SDS011;33995;48.202;16.260;2022-08-02T11:42:46;1.60;;;1.50;;
48205;SDS011;33995;48.202;16.260;2022-08-02T11:45:23;1.67;;;1.33;;
48205;SDS011;33995;48.202;16.260;2022-08-02T11:47:55;1.57;;;1.40;;
48205;SDS011;33995;48.202;16.260;2022-08-02T11:50:24;1.73;;;1.63;;
48205;SDS011;33995;48.202;16.260;2022-08-02T11:52:56;1.73;;;1.60;;
48205;SDS011;33995;48.202;16.260;2022-08-02T11:55:27;1.73;;;1.63;;
48205;SDS011;33995;48.202;16.260;2022-08-02T11:58:00;2.30;;;1.60;;
48205;SDS011;33995;48.202;16.260;2022-08-02T12:00:34;2.27;;;1.87;;
48205;SDS011;33995;48.202;16.260;2022-08-02T12:03:10;1.70;;;1.60;;
48205;SDS011;33995;48.202;16.260;2022-08-02T12:05:48;1.93;;;1.60;;
48205;SDS011;33995;48.202;16.260;2022-08-02T12:08:35;1.80;;;1.70;;
48205;SDS011;33995;48.202;16.260;2022-08-02T12:11:04;1.40;;;1.40;;
48205;SDS011;33995;48.202;16.260;2022-08-02T12:13:41;1.70;;;1.60;;
48205;SDS011;33995;48.202;16.260;2022-08-02T12:16:11;2.40;;;1.60;;
48205;SDS011;33995;48.202;16.260;2022-08-02T12:19:00;1.70;;;1.60;;
48205;SDS011;33995;48.202;16.260;2022-08-02T12:21:46;1.60;;;1.50;;
48205;SDS011;33995;48.202;16.260;2022-08-02T12:24:33;1.70;;;1.60;;
48205;SDS011;33995;48.202;16.260;2022-08-02T12:27:02;1.93;;;1.70;;
48205;SDS011;33995;48.202;16.260;2022-08-02T12:29:32;1.60;;;1.50;;
48205;SDS011;33995;48.202;16.260;2022-08-02T12:32:23;1.77;;;1.50;;
48205;SDS011;33995;48.202;16.260;2022-08-02T12:35:11;1.70;;;1.57;;
48205;SDS011;33995;48.202;16.260;2022-08-02T12:37:52;1.93;;;1.63;;
48205;SDS011;33995;48.202;16.260;2022-08-02T12:40:31;1.80;;;1.70;;
48205;SDS011;33995;48.202;16.260;2022-08-02T12:43:01;1.93;;;1.50;;
48205;SDS011;33995;48.202;16.260;2022-08-02T12:45:32;1.70;;;1.60;;
48205;SDS011;33995;48.202;16.260;2022-08-02T12:48:35;1.73;;;1.50;;
48205;SDS011;33995;48.202;16.260;2022-08-02T12:51:29;2.00;;;1.60;;
48205;SDS011;33995;48.202;16.260;2022-08-02T12:54:23;1.83;;;1.50;;
48205;SDS011;33995;48.202;16.260;2022-08-02T12:57:08;1.60;;;1.50;;
48205;SDS011;33995;48.202;16.260;2022-08-02T12:59:40;1.77;;;1.50;;
48205;SDS011;33995;48.202;16.260;2022-08-02T13:02:12;1.60;;;1.50;;
48205;SDS011;33995;48.202;16.260;2022-08-02T13:04:41;1.60;;;1.50;;
48205;SDS011;33995;48.202;16.260;2022-08-02T13:07:17;2.97;;;1.60;;
48205;SDS011;33995;48.202;16.260;2022-08-02T13:09:47;1.90;;;1.60;;
48205;SDS011;33995;48.202;16.260;2022-08-02T13:12:28;1.73;;;1.63;;
48205;SDS011;33995;48.202;16.260;2022-08-02T13:14:58;1.80;;;1.70;;
48205;SDS011;33995;48.202;16.260;2022-08-02T13:17:40;1.97;;;1.70;;
48205;SDS011;33995;48.202;16.260;2022-08-02T13:20:09;1.67;;;1.57;;
48205;SDS011;33995;48.202;16.260;2022-08-02T13:22:37;1.70;;;1.60;;
48205;SDS011;33995;48.202;16.260;2022-08-02T13:25:18;2.00;;;1.60;;
48205;SDS011;33995;48.202;16.260;2022-08-02T13:27:50;1.70;;;1.60;;
48205;SDS011;33995;48.202;16.260;2022-08-02T13:30:20;1.97;;;1.70;;
48205;SDS011;33995;48.202;16.260;2022-08-02T13:32:49;1.50;;;1.40;;
48205;SDS011;33995;48.202;16.260;2022-08-02T13:35:23;2.10;;;1.60;;
48205;SDS011;33995;48.202;16.260;2022-08-02T13:37:53;2.40;;;1.53;;
48205;SDS011;33995;48.202;16.260;2022-08-02T13:40:23;1.93;;;1.77;;
48205;SDS011;33995;48.202;16.260;2022-08-02T13:42:52;2.37;;;1.60;;
48205;SDS011;33995;48.202;16.260;2022-08-02T13:45:22;1.80;;;1.70;;
48205;SDS011;33995;48.202;16.260;2022-08-02T13:47:50;2.33;;;1.70;;
48205;SDS011;33995;48.202;16.260;2022-08-02T13:50:31;1.70;;;1.60;;
48205;SDS011;33995;48.202;16.260;2022-08-02T13:52:58;1.77;;;1.60;;
48205;SDS011;33995;48.202;16.260;2022-08-02T13:55:28;1.80;;;1.70;;
48205;SDS011;33995;48.202;16.260;2022-08-02T13:58:01;2.00;;;1.63;;
48205;SDS011;33995;48.202;16.260;2022-08-02T14:00:31;1.60;;;1.50;;
48205;SDS011;33995;48.202;16.260;2022-08-02T14:03:05;1.73;;;1.63;;
48205;SDS011;33995;48.202;16.260;2022-08-02T14:05:37;2.17;;;1.50;;
48205;SDS011;33995;48.202;16.260;2022-08-02T14:08:19;1.77;;;1.60;;
48205;SDS011;33995;48.202;16.260;2022-08-02T14:10:49;1.70;;;1.60;;
48205;SDS011;33995;48.202;16.260;2022-08-02T14:13:18;1.80;;;1.70;;
48205;SDS011;33995;48.202;16.260;2022-08-02T14:15:45;1.60;;;1.50;;
48205;SDS011;33995;48.202;16.260;2022-08-02T14:18:15;3.13;;;1.60;;
48205;SDS011;33995;48.202;16.260;2022-08-02T14:20:46;1.90;;;1.80;;
48205;SDS011;33995;48.202;16.260;2022-08-02T14:23:16;2.40;;;1.80;;
48205;SDS011;33995;48.202;16.260;2022-08-02T14:26:08;1.90;;;1.80;;
48205;SDS011;33995;48.202;16.260;2022-08-02T14:28:54;2.43;;;1.90;;
48205;SDS011;33995;48.202;16.260;2022-08-02T14:31:24;1.80;;;1.70;;
48205;SDS011;33995;48.202;16.260;2022-08-02T14:33:54;2.93;;;2.00;;
48205;SDS011;33995;48.202;16.260;2022-08-02T14:36:21;1.90;;;1.63;;
48205;SDS011;33995;48.202;16.260;2022-08-02T14:38:54;2.73;;;1.90;;
48205;SDS011;33995;48.202;16.260;2022-08-02T14:41:22;2.80;;;1.67;;
48205;SDS011;33995;48.202;16.260;2022-08-02T14:43:51;2.53;;;1.80;;
48205;SDS011;33995;48.202;16.260;2022-08-02T14:46:32;2.17;;;1.70;;
48205;SDS011;33995;48.202;16.260;2022-08-02T14:49:03;2.20;;;1.70;;
48205;SDS011;33995;48.202;16.260;2022-08-02T14:51:53;2.37;;;1.80;;
48205;SDS011;33995;48.202;16.260;2022-08-02T14:54:23;2.17;;;1.73;;
48205;SDS011;33995;48.202;16.260;2022-08-02T14:56:58;1.80;;;1.70;;
48205;SDS011;33995;48.202;16.260;2022-08-02T14:59:30;1.87;;;1.70;;
48205;SDS011;33995;48.202;16.260;2022-08-02T15:02:08;1.80;;;1.70;;
48205;SDS011;33995;48.202;16.260;2022-08-02T15:04:40;1.80;;;1.70;;
48205;SDS011;33995;48.202;16.260;2022-08-02T15:07:10;1.67;;;1.57;;
48205;SDS011;33995;48.202;16.260;2022-08-02T15:09:39;1.80;;;1.70;;
48205;SDS011;33995;48.202;16.260;2022-08-02T15:12:10;1.80;;;1.70;;
48205;SDS011;33995;48.202;16.260;2022-08-02T15:14:39;2.10;;;1.80;;
48205;SDS011;33995;48.202;16.260;2022-08-02T15:17:07;1.93;;;1.80;;
48205;SDS011;33995;48.202;16.260;2022-08-02T15:19:36;1.90;;;1.80;;
48205;SDS011;33995;48.202;16.260;2022-08-02T15:22:22;1.90;;;1.80;;
48205;SDS011;33995;48.202;16.260;2022-08-02T15:24:51;1.83;;;1.63;;
48205;SDS011;33995;48.202;16.260;2022-08-02T15:27:22;2.00;;;1.80;;
48205;SDS011;33995;48.202;16.260;2022-08-02T15:29:51;1.90;;;1.80;;
48205;SDS011;33995;48.202;16.260;2022-08-02T15:32:28;2.07;;;1.87;;
48205;SDS011;33995;48.202;16.260;2022-08-02T15:35:03;2.00;;;1.90;;
48205;SDS011;33995;48.202;16.260;2022-08-02T15:37:32;1.90;;;1.80;;
48205;SDS011;33995;48.202;16.260;2022-08-02T15:40:08;1.80;;;1.70;;
48205;SDS011;33995;48.202;16.260;2022-08-02T15:42:37;1.87;;;1.77;;
48205;SDS011;33995;48.202;16.260;2022-08-02T15:45:06;2.50;;;2.00;;
48205;SDS011;33995;48.202;16.260;2022-08-02T15:47:43;2.63;;;1.80;;
48205;SDS011;33995;48.202;16.260;2022-08-02T15:50:16;3.20;;;1.80;;
48205;SDS011;33995;48.202;16.260;2022-08-02T15:52:44;2.10;;;1.87;;